Time;durP1;ratioP1;P1;durP2;ratioP2;P2;SDS_P1;SDS_P2;PMS_P1;PMS_P2;Temp;Humidity;BMP_temperature;BMP_pressure;BME280_temperature;BME280_humidity;BME280_pressure;Samples;Min_cycle;Max_cycle;Signal;HPM_P1;HPM_P2
2021/01/04 00:00:40;;;;;;;18.70;9.47;;;;;;;;;;12909180;23;20182;-57
2021/01/04 00:05:43;;;;;;;13.70;7.50;;;;;;;;;;12892660;23;20198;-57
2021/01/04 00:10:56;;;;;;;15.00;8.03;;;;;;;;;;12888013;23;20175;-56
2021/01/04 00:16:00;;;;;;;15.17;8.03;;;;;;;;;;12913249;23;20214;-55
2021/01/04 00:21:07;;;;;;;14.27;8.00;;;;;;;;;;12906389;23;20174;-56
2021/01/04 00:26:12;;;;;;;16.67;8.43;;;;;;;;;;12909683;23;20177;-56
2021/01/04 00:31:15;;;;;;;15.90;7.20;;;;;;;;;;12897812;23;20203;-55
2021/01/04 00:36:20;;;;;;;17.57;7.93;;;;;;;;;;12886420;23;20234;-56
2021/01/04 00:41:24;;;;;;;14.87;7.90;;;;;;;;;;12885455;23;20179;-57
2021/01/04 00:46:29;;;;;;;16.63;7.97;;;;;;;;;;12887306;23;20229;-57
2021/01/04 00:51:36;;;;;;;15.43;7.77;;;;;;;;;;12883795;23;20408;-56
2021/01/04 00:56:48;;;;;;;15.07;7.80;;;;;;;;;;12907725;23;20195;-57
2021/01/04 01:02:00;;;;;;;11.57;7.20;;;;;;;;;;12826388;22;20216;-54
2021/01/04 01:07:03;;;;;;;14.23;7.30;;;;;;;;;;12822932;23;20175;-55
2021/01/04 01:12:15;;;;;;;13.87;7.37;;;;;;;;;;12827135;23;20197;-53
2021/01/04 01:17:31;;;;;;;12.30;7.10;;;;;;;;;;12826935;23;20192;-64
2021/01/04 01:22:34;;;;;;;13.67;7.27;;;;;;;;;;12825878;23;20183;-64
2021/01/04 01:27:48;;;;;;;14.30;7.23;;;;;;;;;;12827134;23;20203;-62
2021/01/04 01:32:56;;;;;;;16.17;6.97;;;;;;;;;;12826966;23;20182;-62
2021/01/04 01:38:08;;;;;;;13.90;7.47;;;;;;;;;;12824516;23;20199;-63
2021/01/04 01:43:28;;;;;;;18.87;8.17;;;;;;;;;;12826637;23;20183;-63
2021/01/04 01:48:36;;;;;;;11.90;6.97;;;;;;;;;;12825155;23;20781;-62
2021/01/04 01:53:44;;;;;;;15.93;7.63;;;;;;;;;;12825184;23;20163;-63
2021/01/04 01:59:10;;;;;;;14.20;7.50;;;;;;;;;;12826183;23;20679;-63
2021/01/04 02:04:17;;;;;;;15.37;7.77;;;;;;;;;;12859548;23;20613;-62
2021/01/04 02:09:22;;;;;;;16.53;7.60;;;;;;;;;;12886783;23;20175;-62
2021/01/04 02:14:32;;;;;;;16.40;7.60;;;;;;;;;;12889017;23;20175;-63
2021/01/04 02:19:43;;;;;;;15.27;7.93;;;;;;;;;;12887750;23;20186;-63
2021/01/04 02:24:45;;;;;;;14.70;7.57;;;;;;;;;;12887790;23;20561;-63
2021/01/04 02:29:47;;;;;;;14.20;7.27;;;;;;;;;;12888589;23;20270;-63
2021/01/04 02:34:51;;;;;;;14.87;7.23;;;;;;;;;;12886889;23;20179;-55
2021/01/04 02:39:54;;;;;;;14.70;8.17;;;;;;;;;;12887080;23;20644;-54
2021/01/04 02:44:56;;;;;;;13.93;7.83;;;;;;;;;;12888324;23;20175;-53
2021/01/04 02:50:02;;;;;;;16.67;8.57;;;;;;;;;;12886846;23;20175;-63
2021/01/04 02:55:08;;;;;;;14.30;7.80;;;;;;;;;;12887753;23;20202;-63
2021/01/04 03:00:12;;;;;;;16.17;7.73;;;;;;;;;;12891797;23;20175;-65
2021/01/04 03:05:16;;;;;;;20.10;9.13;;;;;;;;;;12889447;23;20225;-65
2021/01/04 03:10:24;;;;;;;16.67;8.67;;;;;;;;;;12892857;23;20175;-63
2021/01/04 03:15:28;;;;;;;16.97;8.50;;;;;;;;;;12892036;23;20282;-63
2021/01/04 03:20:30;;;;;;;15.87;8.50;;;;;;;;;;12892787;23;20179;-62
2021/01/04 03:25:35;;;;;;;15.83;8.73;;;;;;;;;;12889944;23;20513;-63
2021/01/04 03:30:36;;;;;;;17.43;8.97;;;;;;;;;;12892465;23;20175;-53
2021/01/04 03:35:38;;;;;;;18.40;8.80;;;;;;;;;;12890044;23;20203;-56
2021/01/04 03:40:41;;;;;;;18.00;8.63;;;;;;;;;;12892736;23;20178;-53
2021/01/04 03:45:42;;;;;;;16.67;8.77;;;;;;;;;;12892501;23;20171;-63
2021/01/04 03:50:44;;;;;;;18.27;8.93;;;;;;;;;;12892114;23;20177;-63
2021/01/04 03:55:46;;;;;;;17.17;8.63;;;;;;;;;;12890879;23;20206;-63
2021/01/04 04:00:48;;;;;;;19.23;8.30;;;;;;;;;;12892019;23;20206;-63
2021/01/04 04:05:50;;;;;;;18.77;9.27;;;;;;;;;;12889420;23;20225;-62
2021/01/04 04:10:53;;;;;;;14.00;8.10;;;;;;;;;;12889832;23;20506;-63
2021/01/04 04:15:54;;;;;;;14.90;7.37;;;;;;;;;;12886988;23;20823;-63
2021/01/04 04:20:56;;;;;;;13.23;6.80;;;;;;;;;;12887769;23;20715;-63
2021/01/04 04:25:59;;;;;;;15.17;7.60;;;;;;;;;;12887126;23;20807;-63
2021/01/04 04:31:01;;;;;;;16.33;7.07;;;;;;;;;;12893085;22;20185;-64
2021/01/04 04:36:03;;;;;;;13.20;6.77;;;;;;;;;;12884629;23;20234;-63
2021/01/04 04:41:07;;;;;;;13.03;6.93;;;;;;;;;;12888696;23;20258;-53
2021/01/04 04:46:19;;;;;;;12.13;6.60;;;;;;;;;;12885762;23;21132;-54
2021/01/04 04:51:26;;;;;;;12.63;6.93;;;;;;;;;;12888220;23;20246;-52
2021/01/04 04:56:54;;;;;;;13.27;7.20;;;;;;;;;;12884623;23;20273;-52
2021/01/04 05:02:01;;;;;;;13.40;7.03;;;;;;;;;;12887002;23;20213;-55
2021/01/04 05:07:07;;;;;;;17.53;7.63;;;;;;;;;;12882180;23;20237;-56
2021/01/04 05:12:19;;;;;;;16.17;7.50;;;;;;;;;;12887111;23;20167;-55
2021/01/04 05:17:32;;;;;;;14.70;7.17;;;;;;;;;;12886605;23;20560;-63
2021/01/04 05:22:43;;;;;;;13.77;7.77;;;;;;;;;;12883138;23;20179;-63
2021/01/04 05:28:01;;;;;;;12.70;6.70;;;;;;;;;;12886333;23;20194;-63
2021/01/04 05:33:06;;;;;;;15.77;7.90;;;;;;;;;;12884917;23;20163;-64
2021/01/04 05:38:12;;;;;;;13.53;6.53;;;;;;;;;;12884385;23;20199;-63
2021/01/04 05:43:20;;;;;;;14.37;7.13;;;;;;;;;;12885311;22;20170;-63
2021/01/04 05:48:33;;;;;;;15.87;7.27;;;;;;;;;;12885871;23;20168;-63
2021/01/04 05:53:34;;;;;;;18.87;7.90;;;;;;;;;;12882312;23;20570;-63
2021/01/04 05:58:37;;;;;;;17.93;7.77;;;;;;;;;;12886043;23;20211;-63
2021/01/04 06:03:39;;;;;;;14.73;7.20;;;;;;;;;;12882818;23;20221;-62
2021/01/04 06:08:40;;;;;;;16.53;6.90;;;;;;;;;;12886324;23;20175;-63
2021/01/04 06:13:44;;;;;;;16.20;7.87;;;;;;;;;;12884608;23;20179;-63
2021/01/04 06:18:47;;;;;;;16.13;7.80;;;;;;;;;;12885937;23;20298;-63
2021/01/04 06:23:49;;;;;;;15.60;6.73;;;;;;;;;;12882429;23;20175;-63
2021/01/04 06:28:54;;;;;;;13.37;7.17;;;;;;;;;;12886568;23;20186;-62
2021/01/04 06:33:57;;;;;;;16.47;8.30;;;;;;;;;;12882763;23;20181;-63
2021/01/04 06:39:07;;;;;;;17.57;7.77;;;;;;;;;;12885910;23;20262;-63
2021/01/04 06:44:11;;;;;;;12.17;6.90;;;;;;;;;;12882324;23;20500;-62
2021/01/04 06:49:15;;;;;;;18.50;8.73;;;;;;;;;;12885013;23;20170;-53
2021/01/04 06:54:45;;;;;;;18.07;7.97;;;;;;;;;;12883251;23;20209;-56
2021/01/04 07:00:02;;;;;;;15.00;7.17;;;;;;;;;;12886599;23;20249;-55
2021/01/04 07:05:24;;;;;;;14.93;8.20;;;;;;;;;;12881502;23;20658;-54
2021/01/04 07:10:29;;;;;;;19.77;8.63;;;;;;;;;;12886465;23;20433;-64
2021/01/04 07:15:33;;;;;;;14.13;7.80;;;;;;;;;;12884029;23;20241;-63
2021/01/04 07:20:42;;;;;;;17.87;8.27;;;;;;;;;;12880826;23;20194;-61
2021/01/04 07:25:51;;;;;;;14.07;7.53;;;;;;;;;;12883039;23;20167;-64
2021/01/04 07:30:56;;;;;;;15.70;7.10;;;;;;;;;;12883818;23;20171;-63
2021/01/04 07:36:03;;;;;;;13.90;6.87;;;;;;;;;;12882784;23;20199;-63
2021/01/04 07:41:10;;;;;;;14.40;7.40;;;;;;;;;;12881422;23;20508;-63
2021/01/04 07:46:35;;;;;;;16.47;7.43;;;;;;;;;;12886020;23;20719;-64
2021/01/04 07:51:44;;;;;;;11.90;7.13;;;;;;;;;;12800148;22;20520;-64
2021/01/04 07:57:06;;;;;;;13.67;7.53;;;;;;;;;;12890250;23;20198;-64
2021/01/04 08:02:40;;;;;;;14.47;7.87;;;;;;;;;;12888527;23;20963;-55
2021/01/04 08:08:06;;;;;;;19.80;8.50;;;;;;;;;;12886536;23;20403;-55
2021/01/04 08:13:30;;;;;;;15.53;8.07;;;;;;;;;;12865438;23;20171;-55
2021/01/04 08:18:32;;;;;;;17.37;8.17;;;;;;;;;;12886524;23;20199;-56
2021/01/04 08:23:54;;;;;;;17.40;8.83;;;;;;;;;;12888371;23;20175;-64
2021/01/04 08:29:06;;;;;;;16.27;7.67;;;;;;;;;;12878111;22;20175;-63
2021/01/04 08:34:10;;;;;;;15.47;8.20;;;;;;;;;;12888165;23;20174;-62
2021/01/04 08:39:14;;;;;;;14.17;7.67;;;;;;;;;;12874223;23;20683;-50
2021/01/04 08:44:19;;;;;;;18.87;8.27;;;;;;;;;;12887405;23;20186;-53
2021/01/04 08:49:26;;;;;;;18.97;8.30;;;;;;;;;;12883846;23;20181;-61
2021/01/04 08:54:29;;;;;;;14.80;8.03;;;;;;;;;;12887239;23;20171;-56
2021/01/04 08:59:33;;;;;;;16.97;7.23;;;;;;;;;;12885345;23;20270;-55
2021/01/04 09:04:36;;;;;;;12.47;6.73;;;;;;;;;;12883714;23;20207;-55
2021/01/04 09:09:39;;;;;;;13.73;7.37;;;;;;;;;;12886367;23;20193;-54
2021/01/04 09:14:50;;;;;;;17.43;7.50;;;;;;;;;;12882668;23;20182;-56
2021/01/04 09:20:02;;;;;;;15.13;7.20;;;;;;;;;;12885612;23;20205;-62
2021/01/04 09:25:04;;;;;;;13.53;6.93;;;;;;;;;;12884075;23;20167;-66
2021/01/04 09:30:21;;;;;;;12.00;6.50;;;;;;;;;;12887934;23;20171;-63
2021/01/04 09:35:38;;;;;;;11.87;6.83;;;;;;;;;;12882942;23;20231;-51
2021/01/04 09:40:40;;;;;;;11.30;5.90;;;;;;;;;;12883924;23;20179;-55
2021/01/04 09:45:42;;;;;;;10.67;6.17;;;;;;;;;;12882719;23;20640;-52
2021/01/04 09:50:47;;;;;;;9.07;5.43;;;;;;;;;;12883070;23;20183;-56
2021/01/04 09:55:57;;;;;;;12.03;6.40;;;;;;;;;;12884299;23;20229;-65
2021/01/04 10:01:05;;;;;;;10.60;5.70;;;;;;;;;;12887226;23;20229;-65
2021/01/04 10:06:07;;;;;;;10.57;5.53;;;;;;;;;;12882358;23;20548;-64
2021/01/04 10:11:16;;;;;;;11.97;5.77;;;;;;;;;;12883811;23;20615;-63
2021/01/04 10:16:19;;;;;;;14.43;5.40;;;;;;;;;;12883428;23;20202;-64
2021/01/04 10:21:22;;;;;;;10.10;5.20;;;;;;;;;;12885537;23;20179;-64
2021/01/04 10:26:24;;;;;;;13.87;5.93;;;;;;;;;;12882719;23;20256;-64
2021/01/04 10:31:28;;;;;;;9.43;5.77;;;;;;;;;;12886068;23;20514;-64
2021/01/04 10:36:30;;;;;;;11.03;6.03;;;;;;;;;;12883028;23;20207;-64
2021/01/04 10:41:34;;;;;;;11.17;6.30;;;;;;;;;;12885019;23;20736;-64
2021/01/04 10:46:39;;;;;;;15.67;6.60;;;;;;;;;;12883122;23;20182;-64
2021/01/04 10:51:49;;;;;;;12.13;5.93;;;;;;;;;;12882258;23;20499;-53
2021/01/04 10:56:58;;;;;;;10.07;5.60;;;;;;;;;;12885506;23;20195;-55
2021/01/04 11:02:00;;;;;;;9.10;5.60;;;;;;;;;;12886314;23;20201;-54
2021/01/04 11:07:07;;;;;;;8.80;5.23;;;;;;;;;;12880574;22;20214;-64
2021/01/04 11:12:10;;;;;;;10.33;4.77;;;;;;;;;;12886228;23;20690;-64
2021/01/04 11:17:19;;;;;;;10.23;4.60;;;;;;;;;;12880286;23;20541;-63
2021/01/04 11:22:23;;;;;;;7.67;4.40;;;;;;;;;;12886263;23;20170;-63
2021/01/04 11:27:24;;;;;;;9.03;4.93;;;;;;;;;;12886938;23;20641;-63
2021/01/04 11:32:27;;;;;;;7.77;3.60;;;;;;;;;;12891615;23;20519;-63
2021/01/04 11:37:29;;;;;;;11.73;5.20;;;;;;;;;;12885567;23;20636;-63
2021/01/04 11:42:31;;;;;;;10.37;4.97;;;;;;;;;;12889493;23;20476;-63
2021/01/04 11:47:33;;;;;;;9.03;4.93;;;;;;;;;;12884917;23;20464;-63
2021/01/04 11:52:35;;;;;;;8.40;4.73;;;;;;;;;;12886288;23;20308;-64
2021/01/04 11:57:37;;;;;;;9.83;4.60;;;;;;;;;;12884081;23;20206;-63
2021/01/04 12:02:40;;;;;;;7.77;4.37;;;;;;;;;;12889062;23;20225;-63
2021/01/04 12:07:42;;;;;;;7.60;4.00;;;;;;;;;;12881916;23;20673;-63
2021/01/04 12:12:44;;;;;;;9.90;4.50;;;;;;;;;;12888548;23;20174;-63
2021/01/04 12:17:46;;;;;;;8.30;4.20;;;;;;;;;;12886994;23;20209;-63
2021/01/04 12:22:48;;;;;;;7.47;4.13;;;;;;;;;;12883368;23;20171;-64
2021/01/04 12:27:49;;;;;;;6.93;3.90;;;;;;;;;;12888794;23;20175;-64
2021/01/04 12:32:54;;;;;;;7.07;3.90;;;;;;;;;;12885257;23;20175;-64
2021/01/04 12:37:56;;;;;;;6.83;3.70;;;;;;;;;;12884780;23;20286;-64
2021/01/04 12:42:58;;;;;;;6.00;3.77;;;;;;;;;;12882610;23;20181;-64
2021/01/04 12:48:00;;;;;;;5.37;3.70;;;;;;;;;;12887163;23;20179;-64
2021/01/04 12:53:02;;;;;;;8.23;3.80;;;;;;;;;;12882814;23;20183;-64
2021/01/04 12:58:05;;;;;;;6.60;4.07;;;;;;;;;;12886926;23;20794;-63
2021/01/04 13:03:11;;;;;;;5.00;3.43;;;;;;;;;;12883887;23;20207;-63
2021/01/04 13:08:12;;;;;;;8.57;4.00;;;;;;;;;;12903845;23;20648;-64
2021/01/04 13:13:14;;;;;;;5.57;3.80;;;;;;;;;;12883785;23;20186;-63
2021/01/04 13:18:16;;;;;;;4.93;3.00;;;;;;;;;;12886578;23;20218;-63
2021/01/04 13:23:18;;;;;;;5.30;3.13;;;;;;;;;;12882736;23;20641;-64
2021/01/04 13:28:20;;;;;;;5.03;3.40;;;;;;;;;;12885737;23;20175;-63
2021/01/04 13:33:23;;;;;;;6.13;3.60;;;;;;;;;;12885273;23;20175;-64
2021/01/04 13:38:28;;;;;;;7.23;3.70;;;;;;;;;;12884465;23;20234;-64
2021/01/04 13:43:29;;;;;;;6.43;3.30;;;;;;;;;;12883490;23;20178;-64
2021/01/04 13:48:32;;;;;;;5.97;3.13;;;;;;;;;;12886112;23;20183;-64
2021/01/04 13:53:34;;;;;;;7.13;3.30;;;;;;;;;;12879676;23;20186;-63
2021/01/04 13:58:35;;;;;;;5.53;3.63;;;;;;;;;;12885398;23;20202;-64
2021/01/04 14:03:38;;;;;;;6.13;3.60;;;;;;;;;;12881623;23;20675;-63
2021/01/04 14:08:40;;;;;;;4.50;2.83;;;;;;;;;;12888082;23;20588;-63
2021/01/04 14:13:45;;;;;;;5.87;3.10;;;;;;;;;;12884587;23;20572;-63
2021/01/04 14:18:48;;;;;;;5.97;2.90;;;;;;;;;;12884605;23;20207;-64
2021/01/04 14:23:50;;;;;;;5.07;3.10;;;;;;;;;;12883159;23;20182;-63
2021/01/04 14:28:52;;;;;;;5.97;2.50;;;;;;;;;;12882261;23;20527;-63
2021/01/04 14:33:55;;;;;;;4.53;2.57;;;;;;;;;;12884962;23;20182;-63
2021/01/04 14:38:57;;;;;;;5.27;2.80;;;;;;;;;;12880623;23;20202;-63
2021/01/04 14:43:59;;;;;;;4.60;2.90;;;;;;;;;;12885558;23;20187;-63
2021/01/04 14:49:02;;;;;;;4.60;2.67;;;;;;;;;;12880218;23;20183;-63
2021/01/04 14:54:03;;;;;;;5.37;2.90;;;;;;;;;;12882365;23;20637;-63
2021/01/04 14:59:05;;;;;;;3.73;2.83;;;;;;;;;;12882792;23;20827;-63
2021/01/04 15:04:08;;;;;;;6.60;3.10;;;;;;;;;;12883973;23;20221;-63
2021/01/04 15:09:11;;;;;;;4.67;2.70;;;;;;;;;;12882034;23;20183;-63
2021/01/04 15:14:13;;;;;;;6.03;2.63;;;;;;;;;;12886114;23;20185;-63
2021/01/04 15:19:17;;;;;;;6.73;2.87;;;;;;;;;;12881683;23;20606;-63
2021/01/04 15:24:19;;;;;;;5.13;2.57;;;;;;;;;;12883610;23;20175;-63
2021/01/04 15:29:21;;;;;;;4.13;2.80;;;;;;;;;;12883272;23;20182;-63
2021/01/04 15:34:24;;;;;;;4.27;2.87;;;;;;;;;;12880956;23;20278;-62
2021/01/04 15:39:26;;;;;;;5.27;2.93;;;;;;;;;;12875109;23;20561;-63
2021/01/04 15:44:28;;;;;;;4.23;2.87;;;;;;;;;;12876187;23;20537;-63
2021/01/04 15:49:31;;;;;;;4.13;3.00;;;;;;;;;;12878370;23;20179;-64
2021/01/04 15:54:45;;;;;;;4.50;2.63;;;;;;;;;;12827178;22;20214;-62
2021/01/04 15:59:48;;;;;;;4.70;2.83;;;;;;;;;;12819115;23;20208;-61
2021/01/04 16:04:50;;;;;;;3.63;2.57;;;;;;;;;;12821252;23;20180;-62
2021/01/04 16:09:52;;;;;;;6.13;3.20;;;;;;;;;;12823317;23;20175;-62
2021/01/04 16:14:56;;;;;;;5.17;3.23;;;;;;;;;;12826973;23;20206;-62
2021/01/04 16:19:58;;;;;;;6.67;2.97;;;;;;;;;;12823005;23;20210;-62
2021/01/04 16:25:00;;;;;;;7.33;3.27;;;;;;;;;;12826110;23;20176;-62
2021/01/04 16:30:03;;;;;;;4.43;3.27;;;;;;;;;;12822320;23;20176;-62
2021/01/04 16:35:06;;;;;;;7.17;2.97;;;;;;;;;;12825506;23;20179;-62
2021/01/04 16:40:08;;;;;;;5.00;3.40;;;;;;;;;;12824266;23;20287;-62
2021/01/04 16:45:11;;;;;;;6.87;3.43;;;;;;;;;;12822182;23;20188;-62
2021/01/04 16:50:14;;;;;;;4.67;3.07;;;;;;;;;;12821621;23;20251;-61
2021/01/04 16:55:17;;;;;;;4.30;2.90;;;;;;;;;;12884023;23;20215;-62
2021/01/04 17:00:19;;;;;;;6.43;3.00;;;;;;;;;;12890656;23;20211;-62
2021/01/04 17:05:22;;;;;;;6.73;4.00;;;;;;;;;;12883291;23;20175;-62
2021/01/04 17:10:23;;;;;;;9.90;3.57;;;;;;;;;;12886833;23;20175;-62
2021/01/04 17:15:25;;;;;;;5.07;3.50;;;;;;;;;;12884760;23;20202;-61
2021/01/04 17:20:28;;;;;;;4.30;3.17;;;;;;;;;;12885051;23;20199;-62
2021/01/04 17:25:30;;;;;;;6.23;4.03;;;;;;;;;;12885106;23;20516;-62
2021/01/04 17:30:32;;;;;;;5.30;3.37;;;;;;;;;;12885796;23;20189;-62
2021/01/04 17:35:34;;;;;;;7.27;3.80;;;;;;;;;;12883145;23;20183;-60
2021/01/04 17:40:36;;;;;;;6.23;3.30;;;;;;;;;;12883106;23;20207;-61
2021/01/04 17:45:38;;;;;;;6.27;3.50;;;;;;;;;;12883306;23;20241;-60
2021/01/04 17:50:41;;;;;;;9.57;3.93;;;;;;;;;;12883915;23;20175;-62
2021/01/04 17:55:43;;;;;;;8.80;3.57;;;;;;;;;;12882432;23;20207;-61
2021/01/04 18:00:44;;;;;;;5.27;3.50;;;;;;;;;;12886153;23;20221;-61
2021/01/04 18:05:47;;;;;;;6.13;3.80;;;;;;;;;;12881870;23;20485;-61
2021/01/04 18:10:49;;;;;;;5.07;3.43;;;;;;;;;;12887193;23;20186;-61
2021/01/04 18:15:52;;;;;;;5.07;3.30;;;;;;;;;;12880982;23;20632;-61
2021/01/04 18:20:55;;;;;;;5.57;3.63;;;;;;;;;;12874698;23;20543;-62
2021/01/04 18:25:57;;;;;;;6.50;3.90;;;;;;;;;;12873813;23;20647;-61
2021/01/04 18:30:59;;;;;;;5.63;3.40;;;;;;;;;;12877878;23;20190;-62
2021/01/04 18:36:02;;;;;;;5.07;3.23;;;;;;;;;;12873570;23;20179;-61
2021/01/04 18:41:04;;;;;;;5.87;3.50;;;;;;;;;;12880209;23;20210;-62
2021/01/04 18:46:06;;;;;;;7.70;3.50;;;;;;;;;;12877193;23;20516;-66
2021/01/04 18:51:09;;;;;;;6.97;3.73;;;;;;;;;;12878108;23;20267;-62
2021/01/04 18:56:11;;;;;;;7.83;3.60;;;;;;;;;;12875120;23;20527;-62
2021/01/04 19:01:12;;;;;;;7.57;3.87;;;;;;;;;;12879828;23;20211;-62
2021/01/04 19:06:22;;;;;;;6.73;3.70;;;;;;;;;;12874918;23;20225;-61
2021/01/04 19:11:25;;;;;;;7.20;3.80;;;;;;;;;;12875237;23;20597;-61
2021/01/04 19:16:28;;;;;;;6.37;3.80;;;;;;;;;;12880590;23;20181;-61
2021/01/04 19:21:32;;;;;;;5.07;3.40;;;;;;;;;;12875225;23;20226;-63
2021/01/04 19:26:35;;;;;;;5.97;3.97;;;;;;;;;;12878402;23;20181;-61
2021/01/04 19:31:38;;;;;;;8.23;3.97;;;;;;;;;;12876108;23;20186;-63
2021/01/04 19:36:41;;;;;;;6.93;3.93;;;;;;;;;;12877210;23;20931;-62
2021/01/04 19:41:43;;;;;;;8.03;3.87;;;;;;;;;;12880582;23;20198;-62
2021/01/04 19:46:47;;;;;;;4.57;3.57;;;;;;;;;;12885729;23;20183;-63
2021/01/04 19:51:49;;;;;;;7.30;4.00;;;;;;;;;;12877842;23;20910;-62
2021/01/04 19:56:52;;;;;;;7.57;4.27;;;;;;;;;;12880246;23;20176;-62
2021/01/04 20:01:55;;;;;;;6.20;4.03;;;;;;;;;;12881335;23;20175;-62
2021/01/04 20:06:58;;;;;;;6.97;4.17;;;;;;;;;;12879060;23;20266;-62
2021/01/04 20:12:00;;;;;;;6.00;3.83;;;;;;;;;;12882971;23;20179;-62
2021/01/04 20:17:02;;;;;;;7.97;4.10;;;;;;;;;;12878182;23;20282;-62
2021/01/04 20:22:06;;;;;;;10.00;4.30;;;;;;;;;;12879678;23;20688;-62
2021/01/04 20:27:08;;;;;;;11.90;4.63;;;;;;;;;;12880339;23;20237;-61
2021/01/04 20:32:11;;;;;;;6.10;4.50;;;;;;;;;;12882127;23;20742;-62
2021/01/04 20:37:16;;;;;;;6.47;4.33;;;;;;;;;;12876784;23;20213;-61
2021/01/04 20:42:20;;;;;;;8.13;4.20;;;;;;;;;;12880467;23;20206;-62
2021/01/04 20:47:22;;;;;;;6.77;4.33;;;;;;;;;;12875769;23;20629;-61
2021/01/04 20:52:25;;;;;;;8.37;4.00;;;;;;;;;;12878724;23;20211;-63
2021/01/04 20:57:26;;;;;;;8.53;4.20;;;;;;;;;;12880571;23;20206;-63
2021/01/04 21:02:28;;;;;;;8.70;4.40;;;;;;;;;;12882634;23;20185;-63
2021/01/04 21:07:33;;;;;;;9.50;4.57;;;;;;;;;;12875419;23;20179;-61
2021/01/04 21:12:35;;;;;;;7.67;4.47;;;;;;;;;;12879295;23;20172;-62
2021/01/04 21:17:37;;;;;;;8.33;4.00;;;;;;;;;;12877664;23;20214;-62
2021/01/04 21:22:39;;;;;;;7.33;4.33;;;;;;;;;;12880433;23;20174;-61
2021/01/04 21:27:42;;;;;;;8.80;4.30;;;;;;;;;;12878659;23;20175;-62
2021/01/04 21:32:43;;;;;;;9.10;4.93;;;;;;;;;;12881459;23;20554;-63
2021/01/04 21:37:48;;;;;;;7.77;4.40;;;;;;;;;;12876947;23;20203;-62
2021/01/04 21:42:50;;;;;;;8.80;4.60;;;;;;;;;;12880480;23;20186;-62
2021/01/04 21:47:52;;;;;;;7.23;4.40;;;;;;;;;;12875601;23;20632;-62
2021/01/04 21:52:54;;;;;;;6.23;4.70;;;;;;;;;;12876472;23;20751;-61
2021/01/04 21:57:56;;;;;;;6.97;4.23;;;;;;;;;;12878662;23;20591;-62
2021/01/04 22:02:58;;;;;;;9.80;4.47;;;;;;;;;;12880657;23;20758;-62
2021/01/04 22:08:00;;;;;;;9.30;4.80;;;;;;;;;;12874307;23;20613;-61
2021/01/04 22:13:02;;;;;;;6.57;4.17;;;;;;;;;;12887117;23;20178;-60
2021/01/04 22:18:04;;;;;;;6.27;4.63;;;;;;;;;;12884140;23;20671;-61
2021/01/04 22:23:07;;;;;;;6.43;4.33;;;;;;;;;;12885932;23;20254;-61
2021/01/04 22:28:09;;;;;;;9.80;4.60;;;;;;;;;;12889521;23;20175;-62
2021/01/04 22:33:11;;;;;;;9.87;5.03;;;;;;;;;;12885007;23;20191;-60
2021/01/04 22:38:13;;;;;;;9.03;5.40;;;;;;;;;;12884588;23;20215;-61
2021/01/04 22:43:15;;;;;;;6.80;4.57;;;;;;;;;;12886269;23;20175;-62
2021/01/04 22:48:17;;;;;;;8.37;4.83;;;;;;;;;;12885669;23;20490;-60
2021/01/04 22:53:19;;;;;;;6.77;4.57;;;;;;;;;;12882178;23;20207;-61
2021/01/04 22:58:21;;;;;;;7.00;4.57;;;;;;;;;;12885205;23;20826;-61
2021/01/04 23:03:23;;;;;;;7.60;4.73;;;;;;;;;;12883967;23;20537;-61
2021/01/04 23:08:26;;;;;;;10.57;5.00;;;;;;;;;;12884345;23;20237;-61
2021/01/04 23:13:27;;;;;;;13.03;5.20;;;;;;;;;;12884190;23;20179;-61
2021/01/04 23:18:29;;;;;;;12.90;5.00;;;;;;;;;;12890215;23;20198;-61
2021/01/04 23:23:32;;;;;;;7.70;5.00;;;;;;;;;;12887748;23;20175;-61
2021/01/04 23:28:34;;;;;;;11.67;5.07;;;;;;;;;;12891027;23;20178;-61
2021/01/04 23:33:35;;;;;;;9.33;4.80;;;;;;;;;;12887311;23;20659;-61
2021/01/04 23:38:38;;;;;;;6.90;4.43;;;;;;;;;;12889145;23;20214;-61
2021/01/04 23:43:40;;;;;;;7.83;4.60;;;;;;;;;;12888431;23;20179;-61
2021/01/04 23:48:41;;;;;;;7.73;4.80;;;;;;;;;;12889630;23;20179;-62
2021/01/04 23:53:44;;;;;;;6.87;4.77;;;;;;;;;;12884751;23;20806;-63
2021/01/04 23:58:46;;;;;;;7.70;5.30;;;;;;;;;;12891166;23;20211;-62
